sensor_id;sensor_type;location;lat;lon;timestamp;pressure;altitude;pressure_sealevel;temperature;humidity
30875;BME280;17581;43.222;27.924;2023-10-31T00:00:55;100977.03;;;18.31;99.88
30875;BME280;17581;43.222;27.924;2023-10-31T00:03:20;100947.06;;;18.23;100.00
30875;BME280;17581;43.222;27.924;2023-10-31T00:05:46;100964.09;;;18.33;100.00
30875;BME280;17581;43.222;27.924;2023-10-31T00:08:11;100963.06;;;18.26;100.00
30875;BME280;17581;43.222;27.924;2023-10-31T00:10:37;100982.09;;;18.18;100.00
30875;BME280;17581;43.222;27.924;2023-10-31T00:13:02;100954.34;;;18.07;100.00
30875;BME280;17581;43.222;27.924;2023-10-31T00:15:28;100976.31;;;18.21;100.00
30875;BME280;17581;43.222;27.924;2023-10-31T00:17:55;100971.34;;;18.17;100.00
30875;BME280;17581;43.222;27.924;2023-10-31T00:20:21;100957.75;;;18.17;100.00
30875;BME280;17581;43.222;27.924;2023-10-31T00:22:46;100965.09;;;18.24;100.00
30875;BME280;17581;43.222;27.924;2023-10-31T00:25:12;100973.09;;;18.26;100.00
30875;BME280;17581;43.222;27.924;2023-10-31T00:27:37;100968.84;;;18.23;100.00
30875;BME280;17581;43.222;27.924;2023-10-31T00:30:03;100971.22;;;18.26;100.00
30875;BME280;17581;43.222;27.924;2023-10-31T00:32:29;100969.88;;;18.22;100.00
30875;BME280;17581;43.222;27.924;2023-10-31T00:34:54;100950.25;;;18.11;100.00
30875;BME280;17581;43.222;27.924;2023-10-31T00:37:20;100956.19;;;18.06;100.00
30875;BME280;17581;43.222;27.924;2023-10-31T00:39:45;100947.97;;;17.98;100.00
30875;BME280;17581;43.222;27.924;2023-10-31T00:42:11;100943.59;;;18.05;100.00
30875;BME280;17581;43.222;27.924;2023-10-31T00:44:36;100926.41;;;17.97;100.00
30875;BME280;17581;43.222;27.924;2023-10-31T00:47:02;100936.44;;;18.04;100.00
30875;BME280;17581;43.222;27.924;2023-10-31T00:49:30;100931.16;;;17.94;100.00
30875;BME280;17581;43.222;27.924;2023-10-31T00:51:55;100936.75;;;17.93;100.00
30875;BME280;17581;43.222;27.924;2023-10-31T00:54:20;100935.75;;;17.94;100.00
30875;BME280;17581;43.222;27.924;2023-10-31T00:56:46;100941.19;;;18.02;100.00
30875;BME280;17581;43.222;27.924;2023-10-31T00:59:11;100927.25;;;17.97;100.00
30875;BME280;17581;43.222;27.924;2023-10-31T01:01:37;100929.59;;;17.92;100.00
30875;BME280;17581;43.222;27.924;2023-10-31T01:04:02;100923.34;;;18.00;100.00
30875;BME280;17581;43.222;27.924;2023-10-31T01:06:28;100925.38;;;17.98;100.00
30875;BME280;17581;43.222;27.924;2023-10-31T01:08:53;100900.31;;;17.86;100.00
30875;BME280;17581;43.222;27.924;2023-10-31T01:11:19;100932.50;;;17.99;100.00
30875;BME280;17581;43.222;27.924;2023-10-31T01:13:44;100923.47;;;17.90;100.00
30875;BME280;17581;43.222;27.924;2023-10-31T01:16:10;100918.38;;;17.87;100.00
30875;BME280;17581;43.222;27.924;2023-10-31T01:18:36;100912.91;;;17.87;100.00
30875;BME280;17581;43.222;27.924;2023-10-31T01:21:01;100930.63;;;17.91;100.00
30875;BME280;17581;43.222;27.924;2023-10-31T01:23:27;100937.50;;;18.11;100.00
30875;BME280;17581;43.222;27.924;2023-10-31T01:25:52;100924.41;;;18.07;100.00
30875;BME280;17581;43.222;27.924;2023-10-31T01:28:18;100917.44;;;18.12;100.00
30875;BME280;17581;43.222;27.924;2023-10-31T01:30:43;100919.47;;;18.10;100.00
30875;BME280;17581;43.222;27.924;2023-10-31T01:33:09;100909.41;;;18.11;100.00
30875;BME280;17581;43.222;27.924;2023-10-31T01:35:34;100920.44;;;18.01;100.00
30875;BME280;17581;43.222;27.924;2023-10-31T01:38:00;100893.19;;;17.85;100.00
30875;BME280;17581;43.222;27.924;2023-10-31T01:40:25;100915.84;;;18.02;100.00
30875;BME280;17581;43.222;27.924;2023-10-31T01:42:51;100915.66;;;17.95;100.00
30875;BME280;17581;43.222;27.924;2023-10-31T01:45:16;100912.25;;;17.93;100.00
30875;BME280;17581;43.222;27.924;2023-10-31T01:47:43;100916.97;;;17.83;100.00
30875;BME280;17581;43.222;27.924;2023-10-31T01:50:11;100906.75;;;17.77;100.00
30875;BME280;17581;43.222;27.924;2023-10-31T01:52:37;100899.44;;;17.69;100.00
30875;BME280;17581;43.222;27.924;2023-10-31T01:55:04;100914.41;;;17.73;100.00
30875;BME280;17581;43.222;27.924;2023-10-31T01:57:30;100907.72;;;17.68;100.00
30875;BME280;17581;43.222;27.924;2023-10-31T01:59:55;100890.59;;;17.41;100.00
30875;BME280;17581;43.222;27.924;2023-10-31T02:02:23;100923.34;;;17.58;100.00
30875;BME280;17581;43.222;27.924;2023-10-31T02:04:50;100910.06;;;17.55;100.00
30875;BME280;17581;43.222;27.924;2023-10-31T02:07:16;100894.38;;;17.49;100.00
30875;BME280;17581;43.222;27.924;2023-10-31T02:09:41;100891.38;;;17.34;100.00
30875;BME280;17581;43.222;27.924;2023-10-31T02:12:07;100901.91;;;17.55;100.00
30875;BME280;17581;43.222;27.924;2023-10-31T02:14:32;100905.16;;;17.58;100.00
30875;BME280;17581;43.222;27.924;2023-10-31T02:16:58;100899.31;;;17.53;100.00
30875;BME280;17581;43.222;27.924;2023-10-31T02:19:23;100876.69;;;17.53;100.00
30875;BME280;17581;43.222;27.924;2023-10-31T02:21:49;100891.03;;;17.55;100.00
30875;BME280;17581;43.222;27.924;2023-10-31T02:24:14;100901.34;;;17.51;100.00
30875;BME280;17581;43.222;27.924;2023-10-31T02:26:40;100880.78;;;17.49;100.00
30875;BME280;17581;43.222;27.924;2023-10-31T02:29:06;100899.56;;;17.60;100.00
30875;BME280;17581;43.222;27.924;2023-10-31T02:31:32;100891.88;;;17.55;100.00
30875;BME280;17581;43.222;27.924;2023-10-31T02:33:57;100866.84;;;17.52;100.00
30875;BME280;17581;43.222;27.924;2023-10-31T02:36:23;100872.03;;;17.63;100.00
30875;BME280;17581;43.222;27.924;2023-10-31T02:38:49;100895.50;;;17.64;100.00
30875;BME280;17581;43.222;27.924;2023-10-31T02:41:15;100867.09;;;17.66;100.00
30875;BME280;17581;43.222;27.924;2023-10-31T02:43:41;100873.94;;;17.70;100.00
30875;BME280;17581;43.222;27.924;2023-10-31T02:46:06;100885.31;;;17.74;100.00
30875;BME280;17581;43.222;27.924;2023-10-31T02:48:32;100870.31;;;17.62;100.00
30875;BME280;17581;43.222;27.924;2023-10-31T02:51:07;100882.25;;;17.69;100.00
30875;BME280;17581;43.222;27.924;2023-10-31T02:53:33;100887.69;;;17.69;100.00
30875;BME280;17581;43.222;27.924;2023-10-31T02:55:58;100879.88;;;17.74;100.00
30875;BME280;17581;43.222;27.924;2023-10-31T02:58:24;100851.97;;;17.64;100.00
30875;BME280;17581;43.222;27.924;2023-10-31T03:00:49;100868.66;;;17.77;100.00
30875;BME280;17581;43.222;27.924;2023-10-31T03:03:15;100852.66;;;17.66;100.00
30875;BME280;17581;43.222;27.924;2023-10-31T03:05:41;100875.16;;;17.84;100.00
30875;BME280;17581;43.222;27.924;2023-10-31T03:08:06;100869.84;;;17.66;100.00
30875;BME280;17581;43.222;27.924;2023-10-31T03:10:33;100857.75;;;17.61;100.00
30875;BME280;17581;43.222;27.924;2023-10-31T03:12:59;100870.09;;;17.55;100.00
30875;BME280;17581;43.222;27.924;2023-10-31T03:15:24;100863.59;;;17.48;100.00
30875;BME280;17581;43.222;27.924;2023-10-31T03:17:50;100867.00;;;17.50;100.00
30875;BME280;17581;43.222;27.924;2023-10-31T03:20:15;100865.16;;;17.51;100.00
30875;BME280;17581;43.222;27.924;2023-10-31T03:22:41;100862.56;;;17.49;100.00
30875;BME280;17581;43.222;27.924;2023-10-31T03:25:06;100866.75;;;17.61;100.00
30875;BME280;17581;43.222;27.924;2023-10-31T03:27:32;100873.03;;;17.62;100.00
30875;BME280;17581;43.222;27.924;2023-10-31T03:29:57;100856.66;;;17.54;100.00
30875;BME280;17581;43.222;27.924;2023-10-31T03:32:23;100854.50;;;17.65;100.00
30875;BME280;17581;43.222;27.924;2023-10-31T03:34:48;100859.16;;;17.81;100.00
30875;BME280;17581;43.222;27.924;2023-10-31T03:37:14;100866.66;;;17.87;100.00
30875;BME280;17581;43.222;27.924;2023-10-31T03:39:39;100858.50;;;17.87;100.00
30875;BME280;17581;43.222;27.924;2023-10-31T03:42:05;100867.50;;;17.87;100.00
30875;BME280;17581;43.222;27.924;2023-10-31T03:44:30;100867.00;;;17.92;100.00
30875;BME280;17581;43.222;27.924;2023-10-31T03:46:56;100873.16;;;17.94;100.00
30875;BME280;17581;43.222;27.924;2023-10-31T03:49:21;100864.66;;;17.97;100.00
30875;BME280;17581;43.222;27.924;2023-10-31T03:51:47;100863.06;;;17.86;100.00
30875;BME280;17581;43.222;27.924;2023-10-31T03:54:12;100871.09;;;17.88;100.00
30875;BME280;17581;43.222;27.924;2023-10-31T03:56:42;100868.31;;;17.80;100.00
30875;BME280;17581;43.222;27.924;2023-10-31T03:59:07;100862.53;;;17.75;100.00
30875;BME280;17581;43.222;27.924;2023-10-31T04:01:33;100853.72;;;17.81;100.00
30875;BME280;17581;43.222;27.924;2023-10-31T04:03:59;100864.78;;;17.87;100.00
30875;BME280;17581;43.222;27.924;2023-10-31T04:06:24;100863.28;;;17.93;100.00
30875;BME280;17581;43.222;27.924;2023-10-31T04:08:49;100842.50;;;17.84;100.00
30875;BME280;17581;43.222;27.924;2023-10-31T04:11:15;100834.00;;;17.79;100.00
30875;BME280;17581;43.222;27.924;2023-10-31T04:13:40;100838.44;;;17.96;100.00
30875;BME280;17581;43.222;27.924;2023-10-31T04:16:06;100853.09;;;18.03;100.00
30875;BME280;17581;43.222;27.924;2023-10-31T04:18:32;100849.00;;;17.99;100.00
30875;BME280;17581;43.222;27.924;2023-10-31T04:20:58;100848.66;;;18.02;100.00
30875;BME280;17581;43.222;27.924;2023-10-31T04:23:23;100846.97;;;18.09;100.00
30875;BME280;17581;43.222;27.924;2023-10-31T04:25:49;100852.59;;;18.24;100.00
30875;BME280;17581;43.222;27.924;2023-10-31T04:28:17;100859.59;;;18.26;100.00
30875;BME280;17581;43.222;27.924;2023-10-31T04:30:43;100863.34;;;18.33;100.00
30875;BME280;17581;43.222;27.924;2023-10-31T04:33:08;100864.88;;;18.36;100.00
30875;BME280;17581;43.222;27.924;2023-10-31T04:35:34;100864.69;;;18.29;100.00
30875;BME280;17581;43.222;27.924;2023-10-31T04:37:59;100865.38;;;18.39;100.00
30875;BME280;17581;43.222;27.924;2023-10-31T04:40:25;100866.06;;;18.41;100.00
30875;BME280;17581;43.222;27.924;2023-10-31T04:42:50;100869.16;;;18.46;100.00
30875;BME280;17581;43.222;27.924;2023-10-31T04:45:16;100868.44;;;18.44;100.00
30875;BME280;17581;43.222;27.924;2023-10-31T04:47:41;100809.53;;;18.03;100.00
30875;BME280;17581;43.222;27.924;2023-10-31T04:50:07;100864.53;;;18.47;100.00
30875;BME280;17581;43.222;27.924;2023-10-31T04:52:33;100863.69;;;18.46;100.00
30875;BME280;17581;43.222;27.924;2023-10-31T04:54:58;100849.38;;;18.44;100.00
30875;BME280;17581;43.222;27.924;2023-10-31T04:57:24;100870.53;;;18.59;100.00
30875;BME280;17581;43.222;27.924;2023-10-31T04:59:49;100852.28;;;18.59;100.00
30875;BME280;17581;43.222;27.924;2023-10-31T05:02:15;100860.97;;;18.63;100.00
30875;BME280;17581;43.222;27.924;2023-10-31T05:04:41;100853.84;;;18.62;100.00
30875;BME280;17581;43.222;27.924;2023-10-31T05:07:06;100862.53;;;18.73;100.00
30875;BME280;17581;43.222;27.924;2023-10-31T05:09:32;100847.88;;;18.66;100.00
30875;BME280;17581;43.222;27.924;2023-10-31T05:11:57;100858.78;;;18.66;100.00
30875;BME280;17581;43.222;27.924;2023-10-31T05:14:23;100863.38;;;18.66;100.00
30875;BME280;17581;43.222;27.924;2023-10-31T05:16:48;100865.06;;;18.75;100.00
30875;BME280;17581;43.222;27.924;2023-10-31T05:19:14;100878.19;;;18.79;100.00
30875;BME280;17581;43.222;27.924;2023-10-31T05:21:39;100871.38;;;18.75;100.00
30875;BME280;17581;43.222;27.924;2023-10-31T05:24:05;100887.91;;;18.74;100.00
30875;BME280;17581;43.222;27.924;2023-10-31T05:26:31;100876.34;;;18.56;100.00
30875;BME280;17581;43.222;27.924;2023-10-31T05:28:57;100889.44;;;18.60;100.00
30875;BME280;17581;43.222;27.924;2023-10-31T05:31:23;100881.44;;;18.59;100.00
30875;BME280;17581;43.222;27.924;2023-10-31T05:33:50;100889.59;;;18.51;100.00
30875;BME280;17581;43.222;27.924;2023-10-31T05:36:20;100885.50;;;18.46;100.00
30875;BME280;17581;43.222;27.924;2023-10-31T05:38:46;100887.69;;;18.43;100.00
30875;BME280;17581;43.222;27.924;2023-10-31T05:41:12;100885.84;;;18.52;100.00
30875;BME280;17581;43.222;27.924;2023-10-31T05:43:37;100865.06;;;18.51;100.00
30875;BME280;17581;43.222;27.924;2023-10-31T05:46:03;100867.47;;;18.62;100.00
30875;BME280;17581;43.222;27.924;2023-10-31T05:48:30;100869.50;;;18.60;99.29
30875;BME280;17581;43.222;27.924;2023-10-31T05:50:56;100898.78;;;18.82;99.26
30875;BME280;17581;43.222;27.924;2023-10-31T05:53:21;100890.28;;;18.77;98.39
30875;BME280;17581;43.222;27.924;2023-10-31T05:55:47;100892.81;;;18.78;98.13
30875;BME280;17581;43.222;27.924;2023-10-31T05:58:12;100873.94;;;18.61;97.88
30875;BME280;17581;43.222;27.924;2023-10-31T06:00:38;100852.50;;;18.50;99.08
30875;BME280;17581;43.222;27.924;2023-10-31T06:03:03;100880.59;;;18.58;98.80
30875;BME280;17581;43.222;27.924;2023-10-31T06:05:28;100883.09;;;18.43;98.41
30875;BME280;17581;43.222;27.924;2023-10-31T06:07:54;100904.56;;;18.46;98.65
30875;BME280;17581;43.222;27.924;2023-10-31T06:10:20;100874.91;;;18.35;99.75
30875;BME280;17581;43.222;27.924;2023-10-31T06:12:46;100894.34;;;18.48;99.90
30875;BME280;17581;43.222;27.924;2023-10-31T06:15:12;100891.81;;;18.55;100.00
30875;BME280;17581;43.222;27.924;2023-10-31T06:17:37;100899.66;;;18.74;99.81
30875;BME280;17581;43.222;27.924;2023-10-31T06:20:03;100904.25;;;18.82;98.98
30875;BME280;17581;43.222;27.924;2023-10-31T06:22:29;100905.59;;;18.78;98.25
30875;BME280;17581;43.222;27.924;2023-10-31T06:24:54;100889.94;;;18.80;98.24
30875;BME280;17581;43.222;27.924;2023-10-31T06:27:20;100871.72;;;18.80;98.21
30875;BME280;17581;43.222;27.924;2023-10-31T06:29:45;100876.13;;;18.97;98.03
30875;BME280;17581;43.222;27.924;2023-10-31T06:32:11;100889.53;;;19.15;97.98
30875;BME280;17581;43.222;27.924;2023-10-31T06:34:36;100867.91;;;19.14;97.36
30875;BME280;17581;43.222;27.924;2023-10-31T06:37:02;100869.09;;;19.19;95.96
30875;BME280;17581;43.222;27.924;2023-10-31T06:39:28;100884.44;;;19.20;95.22
30875;BME280;17581;43.222;27.924;2023-10-31T06:41:57;100851.28;;;18.92;95.06
30875;BME280;17581;43.222;27.924;2023-10-31T06:44:22;100887.16;;;19.20;95.25
30875;BME280;17581;43.222;27.924;2023-10-31T06:46:48;100873.13;;;19.31;94.82
30875;BME280;17581;43.222;27.924;2023-10-31T06:49:13;100846.25;;;19.12;93.69
30875;BME280;17581;43.222;27.924;2023-10-31T06:51:38;100853.22;;;19.23;93.37
30875;BME280;17581;43.222;27.924;2023-10-31T06:54:04;100877.03;;;19.37;93.17
30875;BME280;17581;43.222;27.924;2023-10-31T06:56:29;100877.56;;;19.40;93.53
30875;BME280;17581;43.222;27.924;2023-10-31T06:58:55;100864.25;;;19.45;93.22
30875;BME280;17581;43.222;27.924;2023-10-31T07:01:20;100847.59;;;19.32;92.35
30875;BME280;17581;43.222;27.924;2023-10-31T07:03:47;100854.03;;;19.39;92.51
30875;BME280;17581;43.222;27.924;2023-10-31T07:06:12;100871.72;;;19.60;91.85
30875;BME280;17581;43.222;27.924;2023-10-31T07:08:38;100867.69;;;19.39;91.42
30875;BME280;17581;43.222;27.924;2023-10-31T07:11:03;100866.66;;;19.40;91.80
30875;BME280;17581;43.222;27.924;2023-10-31T07:13:30;100860.00;;;19.43;91.39
30875;BME280;17581;43.222;27.924;2023-10-31T07:15:55;100877.38;;;19.50;90.11
30875;BME280;17581;43.222;27.924;2023-10-31T07:18:21;100857.47;;;19.41;90.01
30875;BME280;17581;43.222;27.924;2023-10-31T07:20:46;100848.91;;;19.36;89.54
30875;BME280;17581;43.222;27.924;2023-10-31T07:23:12;100873.13;;;19.47;89.71
30875;BME280;17581;43.222;27.924;2023-10-31T07:25:37;100869.50;;;19.55;90.02
30875;BME280;17581;43.222;27.924;2023-10-31T07:28:03;100872.69;;;19.67;89.55
30875;BME280;17581;43.222;27.924;2023-10-31T07:30:29;100874.34;;;19.76;88.86
30875;BME280;17581;43.222;27.924;2023-10-31T07:32:55;100864.66;;;19.73;88.50
30875;BME280;17581;43.222;27.924;2023-10-31T07:35:20;100865.44;;;19.82;88.83
30875;BME280;17581;43.222;27.924;2023-10-31T07:37:46;100843.34;;;19.69;88.10
30875;BME280;17581;43.222;27.924;2023-10-31T07:40:12;100873.91;;;19.95;87.75
30875;BME280;17581;43.222;27.924;2023-10-31T07:42:37;100858.91;;;19.91;87.24
30875;BME280;17581;43.222;27.924;2023-10-31T07:45:03;100862.81;;;19.96;87.61
30875;BME280;17581;43.222;27.924;2023-10-31T07:47:28;100863.88;;;20.18;87.64
30875;BME280;17581;43.222;27.924;2023-10-31T07:49:54;100867.72;;;20.32;87.14
30875;BME280;17581;43.222;27.924;2023-10-31T07:52:20;100856.28;;;20.36;86.19
30875;BME280;17581;43.222;27.924;2023-10-31T07:54:45;100868.22;;;20.35;85.06
30875;BME280;17581;43.222;27.924;2023-10-31T07:57:19;100872.34;;;20.31;85.59
30875;BME280;17581;43.222;27.924;2023-10-31T07:59:48;100838.25;;;20.19;86.53
30875;BME280;17581;43.222;27.924;2023-10-31T08:02:13;100849.19;;;20.19;86.56
30875;BME280;17581;43.222;27.924;2023-10-31T08:04:39;100862.47;;;20.30;86.71
30875;BME280;17581;43.222;27.924;2023-10-31T08:07:04;100869.94;;;20.36;86.25
30875;BME280;17581;43.222;27.924;2023-10-31T08:09:30;100815.78;;;20.09;85.22
30875;BME280;17581;43.222;27.924;2023-10-31T08:11:55;100862.41;;;20.38;85.88
30875;BME280;17581;43.222;27.924;2023-10-31T08:14:20;100856.06;;;20.38;86.08
30875;BME280;17581;43.222;27.924;2023-10-31T08:16:47;100848.00;;;20.44;85.38
30875;BME280;17581;43.222;27.924;2023-10-31T08:19:13;100854.13;;;20.46;84.14
30875;BME280;17581;43.222;27.924;2023-10-31T08:21:39;100845.72;;;20.33;84.70
30875;BME280;17581;43.222;27.924;2023-10-31T08:24:05;100852.44;;;20.45;85.06
30875;BME280;17581;43.222;27.924;2023-10-31T08:26:32;100836.06;;;20.45;84.75
30875;BME280;17581;43.222;27.924;2023-10-31T08:28:58;100843.44;;;20.59;83.91
30875;BME280;17581;43.222;27.924;2023-10-31T08:31:24;100841.34;;;20.61;82.95
30875;BME280;17581;43.222;27.924;2023-10-31T08:33:49;100821.13;;;20.33;83.80
30875;BME280;17581;43.222;27.924;2023-10-31T08:36:15;100818.19;;;20.35;84.53
30875;BME280;17581;43.222;27.924;2023-10-31T08:38:40;100841.72;;;20.58;84.35
30875;BME280;17581;43.222;27.924;2023-10-31T08:41:06;100819.84;;;20.58;83.34
30875;BME280;17581;43.222;27.924;2023-10-31T08:43:31;100835.38;;;20.81;82.13
30875;BME280;17581;43.222;27.924;2023-10-31T08:45:57;100821.53;;;20.82;81.38
30875;BME280;17581;43.222;27.924;2023-10-31T08:48:22;100826.31;;;20.95;81.71
30875;BME280;17581;43.222;27.924;2023-10-31T08:50:48;100825.56;;;21.01;80.93
30875;BME280;17581;43.222;27.924;2023-10-31T08:53:14;100807.00;;;20.67;81.97
30875;BME280;17581;43.222;27.924;2023-10-31T08:55:40;100794.81;;;20.70;82.77
30875;BME280;17581;43.222;27.924;2023-10-31T08:58:10;100812.66;;;20.95;83.00
30875;BME280;17581;43.222;27.924;2023-10-31T09:00:35;100807.00;;;20.96;82.48
30875;BME280;17581;43.222;27.924;2023-10-31T09:03:01;100770.34;;;20.91;82.43
30875;BME280;17581;43.222;27.924;2023-10-31T09:05:26;100773.06;;;21.05;82.17
30875;BME280;17581;43.222;27.924;2023-10-31T09:07:52;100797.81;;;21.12;80.59
30875;BME280;17581;43.222;27.924;2023-10-31T09:10:18;100801.34;;;20.98;80.64
30875;BME280;17581;43.222;27.924;2023-10-31T09:12:43;100805.41;;;20.87;82.21
30875;BME280;17581;43.222;27.924;2023-10-31T09:15:09;100799.84;;;20.95;82.43
30875;BME280;17581;43.222;27.924;2023-10-31T09:17:34;100784.75;;;20.99;82.41
30875;BME280;17581;43.222;27.924;2023-10-31T09:20:00;100779.09;;;21.01;82.31
30875;BME280;17581;43.222;27.924;2023-10-31T09:22:25;100780.34;;;21.13;82.07
30875;BME280;17581;43.222;27.924;2023-10-31T09:24:51;100786.91;;;21.04;80.75
30875;BME280;17581;43.222;27.924;2023-10-31T09:27:16;100787.50;;;20.99;82.42
30875;BME280;17581;43.222;27.924;2023-10-31T09:29:42;100768.63;;;20.90;80.88
30875;BME280;17581;43.222;27.924;2023-10-31T09:32:07;100745.03;;;20.59;81.82
30875;BME280;17581;43.222;27.924;2023-10-31T09:34:33;100752.41;;;20.74;82.62
30875;BME280;17581;43.222;27.924;2023-10-31T09:36:58;100768.34;;;20.99;82.35
30875;BME280;17581;43.222;27.924;2023-10-31T09:39:24;100749.59;;;20.96;82.40
30875;BME280;17581;43.222;27.924;2023-10-31T09:41:49;100758.91;;;21.02;81.53
30875;BME280;17581;43.222;27.924;2023-10-31T09:44:15;100726.22;;;20.94;81.67
30875;BME280;17581;43.222;27.924;2023-10-31T09:46:41;100735.81;;;20.90;81.14
30875;BME280;17581;43.222;27.924;2023-10-31T09:49:07;100745.25;;;21.02;81.45
30875;BME280;17581;43.222;27.924;2023-10-31T09:51:33;100731.28;;;20.97;82.84
30875;BME280;17581;43.222;27.924;2023-10-31T09:53:59;100689.22;;;20.98;81.96
30875;BME280;17581;43.222;27.924;2023-10-31T09:56:27;100735.91;;;21.40;80.83
30875;BME280;17581;43.222;27.924;2023-10-31T09:59:00;100694.25;;;21.09;79.73
30875;BME280;17581;43.222;27.924;2023-10-31T10:01:25;100718.66;;;21.25;81.25
30875;BME280;17581;43.222;27.924;2023-10-31T10:03:51;100700.41;;;21.32;80.67
30875;BME280;17581;43.222;27.924;2023-10-31T10:06:17;100719.69;;;21.60;79.95
30875;BME280;17581;43.222;27.924;2023-10-31T10:08:46;100725.09;;;21.75;79.52
30875;BME280;17581;43.222;27.924;2023-10-31T10:11:12;100692.53;;;21.58;79.02
30875;BME280;17581;43.222;27.924;2023-10-31T10:13:37;100710.78;;;21.73;78.48
30875;BME280;17581;43.222;27.924;2023-10-31T10:16:03;100698.63;;;21.39;79.25
30875;BME280;17581;43.222;27.924;2023-10-31T10:18:34;100690.59;;;21.38;78.87
30875;BME280;17581;43.222;27.924;2023-10-31T10:21:02;100689.00;;;21.29;80.08
30875;BME280;17581;43.222;27.924;2023-10-31T10:23:29;100669.81;;;21.22;80.71
30875;BME280;17581;43.222;27.924;2023-10-31T10:25:56;100680.09;;;21.41;81.12
30875;BME280;17581;43.222;27.924;2023-10-31T10:28:22;100696.53;;;21.41;80.86
30875;BME280;17581;43.222;27.924;2023-10-31T10:30:50;100691.06;;;21.41;80.63
30875;BME280;17581;43.222;27.924;2023-10-31T10:33:17;100684.34;;;21.44;80.50
30875;BME280;17581;43.222;27.924;2023-10-31T10:35:43;100679.41;;;21.54;80.38
30875;BME280;17581;43.222;27.924;2023-10-31T10:38:19;100623.16;;;21.30;79.98
30875;BME280;17581;43.222;27.924;2023-10-31T10:40:46;100687.03;;;21.80;79.46
30875;BME280;17581;43.222;27.924;2023-10-31T10:43:21;100679.56;;;21.67;80.04
30875;BME280;17581;43.222;27.924;2023-10-31T10:45:59;100658.88;;;21.64;79.75
30875;BME280;17581;43.222;27.924;2023-10-31T10:48:26;100640.09;;;21.83;79.84
30875;BME280;17581;43.222;27.924;2023-10-31T10:51:14;100646.56;;;21.96;78.41
30875;BME280;17581;43.222;27.924;2023-10-31T10:53:49;100662.66;;;22.06;78.00
30875;BME280;17581;43.222;27.924;2023-10-31T10:56:26;100665.16;;;22.01;76.80
30875;BME280;17581;43.222;27.924;2023-10-31T10:59:03;100650.78;;;21.99;77.01
30875;BME280;17581;43.222;27.924;2023-10-31T11:01:31;100653.28;;;21.94;77.38
30875;BME280;17581;43.222;27.924;2023-10-31T11:03:59;100646.84;;;21.87;77.65
30875;BME280;17581;43.222;27.924;2023-10-31T11:06:25;100633.78;;;21.82;78.05
30875;BME280;17581;43.222;27.924;2023-10-31T11:08:52;100629.94;;;21.77;79.02
30875;BME280;17581;43.222;27.924;2023-10-31T11:11:19;100628.41;;;21.89;78.79
30875;BME280;17581;43.222;27.924;2023-10-31T11:13:46;100616.75;;;21.65;79.26
30875;BME280;17581;43.222;27.924;2023-10-31T11:16:29;100608.44;;;21.74;79.62
30875;BME280;17581;43.222;27.924;2023-10-31T11:18:56;100611.75;;;21.90;79.04
30875;BME280;17581;43.222;27.924;2023-10-31T11:21:28;100615.69;;;21.88;78.27
30875;BME280;17581;43.222;27.924;2023-10-31T11:23:58;100611.16;;;21.95;78.76
30875;BME280;17581;43.222;27.924;2023-10-31T11:26:29;100598.56;;;22.00;77.51
30875;BME280;17581;43.222;27.924;2023-10-31T11:29:05;100597.47;;;21.95;77.04
30875;BME280;17581;43.222;27.924;2023-10-31T11:31:32;100608.09;;;21.83;78.17
30875;BME280;17581;43.222;27.924;2023-10-31T11:34:01;100583.53;;;21.68;78.42
30875;BME280;17581;43.222;27.924;2023-10-31T11:36:30;100570.91;;;21.67;79.16
30875;BME280;17581;43.222;27.924;2023-10-31T11:39:12;100590.63;;;22.12;78.65
30875;BME280;17581;43.222;27.924;2023-10-31T11:41:40;100585.25;;;22.25;77.33
30875;BME280;17581;43.222;27.924;2023-10-31T11:44:06;100545.31;;;22.09;75.99
30875;BME280;17581;43.222;27.924;2023-10-31T11:46:31;100576.75;;;22.20;76.38
30875;BME280;17581;43.222;27.924;2023-10-31T11:48:57;100561.94;;;22.08;76.62
30875;BME280;17581;43.222;27.924;2023-10-31T11:51:23;100570.00;;;22.16;76.61
30875;BME280;17581;43.222;27.924;2023-10-31T11:53:49;100570.00;;;22.16;76.94
30875;BME280;17581;43.222;27.924;2023-10-31T11:56:15;100543.38;;;22.03;77.40
30875;BME280;17581;43.222;27.924;2023-10-31T11:58:41;100563.88;;;22.14;76.62
30875;BME280;17581;43.222;27.924;2023-10-31T12:01:10;100569.06;;;22.02;76.68
30875;BME280;17581;43.222;27.924;2023-10-31T12:03:40;100563.94;;;21.93;77.99
30875;BME280;17581;43.222;27.924;2023-10-31T12:06:07;100570.72;;;21.97;78.27
30875;BME280;17581;43.222;27.924;2023-10-31T12:08:38;100561.50;;;21.77;79.27
30875;BME280;17581;43.222;27.924;2023-10-31T12:11:15;100546.00;;;21.62;79.11
30875;BME280;17581;43.222;27.924;2023-10-31T12:13:50;100563.31;;;21.69;79.60
30875;BME280;17581;43.222;27.924;2023-10-31T12:16:16;100571.13;;;21.73;80.03
30875;BME280;17581;43.222;27.924;2023-10-31T12:18:42;100557.06;;;21.76;80.45
30875;BME280;17581;43.222;27.924;2023-10-31T12:21:08;100556.84;;;21.49;80.61
30875;BME280;17581;43.222;27.924;2023-10-31T12:23:34;100561.16;;;21.37;82.03
30875;BME280;17581;43.222;27.924;2023-10-31T12:25:59;100556.78;;;21.43;82.58
30875;BME280;17581;43.222;27.924;2023-10-31T12:28:25;100558.91;;;21.47;82.61
30875;BME280;17581;43.222;27.924;2023-10-31T12:30:53;100554.81;;;21.58;82.59